createdAt,value
2022-11-02T00:00:15.074Z,0.70
2022-11-02T00:01:18.136Z,0.58
2022-11-02T00:02:11.141Z,1.14
2022-11-02T00:03:11.176Z,1.14
2022-11-02T00:04:11.074Z,0.64
2022-11-02T00:05:12.064Z,0.74
2022-11-02T00:06:11.063Z,0.56
2022-11-02T00:07:11.069Z,0.82
2022-11-02T00:08:11.064Z,0.50
2022-11-02T00:09:11.075Z,0.30
2022-11-02T00:10:11.069Z,0.46
2022-11-02T00:11:11.063Z,0.36
2022-11-02T00:12:11.065Z,0.48
2022-11-02T00:13:11.070Z,0.80
2022-11-02T00:14:11.065Z,0.62
2022-11-02T00:15:11.064Z,0.74
2022-11-02T00:16:13.070Z,0.60
2022-11-02T00:17:11.064Z,0.82
2022-11-02T00:18:12.064Z,0.66
2022-11-02T00:19:11.066Z,1.40
2022-11-02T00:20:11.063Z,0.80
2022-11-02T00:21:11.060Z,1.78
2022-11-02T00:22:11.067Z,0.46
2022-11-02T00:23:11.097Z,0.92
2022-11-02T00:24:11.057Z,0.74
2022-11-02T00:25:12.064Z,0.76
2022-11-02T00:26:11.060Z,0.68
2022-11-02T00:27:11.059Z,0.96
2022-11-02T00:28:11.067Z,0.82
2022-11-02T00:29:11.062Z,1.04
2022-11-02T00:30:11.055Z,0.84
2022-11-02T00:31:11.058Z,0.70
2022-11-02T00:32:11.061Z,0.66
2022-11-02T00:33:11.097Z,0.90
2022-11-02T00:34:11.064Z,1.10
2022-11-02T00:35:11.060Z,0.62
2022-11-02T00:36:11.057Z,1.44
2022-11-02T00:37:11.063Z,0.72
2022-11-02T00:38:11.066Z,0.54
2022-11-02T00:39:11.063Z,0.64
2022-11-02T00:40:11.069Z,0.84
2022-11-02T00:41:11.060Z,1.04
2022-11-02T00:42:11.061Z,0.68
2022-11-02T00:43:11.071Z,0.74
2022-11-02T00:44:11.063Z,0.50
2022-11-02T00:45:11.062Z,0.78
2022-11-02T00:46:11.074Z,0.88
2022-11-02T00:47:11.061Z,0.86
2022-11-02T00:48:11.059Z,0.86
2022-11-02T00:49:11.062Z,0.46
2022-11-02T00:50:11.059Z,0.84
2022-11-02T00:51:11.063Z,0.30
2022-11-02T00:52:11.063Z,0.70
2022-11-02T00:53:11.057Z,0.92
2022-11-02T00:54:11.070Z,1.16
2022-11-02T00:55:11.062Z,0.66
2022-11-02T00:56:11.062Z,0.70
2022-11-02T00:57:11.070Z,1.40
2022-11-02T00:58:11.064Z,0.52
2022-11-02T00:59:11.057Z,0.88
2022-11-02T01:00:11.065Z,0.56
2022-11-02T01:01:11.181Z,0.62
2022-11-02T01:02:11.218Z,0.54
2022-11-02T01:03:11.066Z,0.66
2022-11-02T01:04:11.067Z,0.78
2022-11-02T01:05:11.077Z,0.78
2022-11-02T01:06:14.067Z,0.56
2022-11-02T01:07:11.070Z,0.34
2022-11-02T01:08:11.064Z,0.80
2022-11-02T01:09:11.062Z,0.72
2022-11-02T01:10:11.069Z,1.82
2022-11-02T01:11:15.061Z,0.84
2022-11-02T01:12:11.064Z,0.52
2022-11-02T01:13:11.065Z,0.84
2022-11-02T01:14:11.066Z,1.48
2022-11-02T01:15:11.066Z,0.66
2022-11-02T01:16:11.065Z,0.76
2022-11-02T01:17:11.064Z,0.92
2022-11-02T01:18:11.066Z,0.98
2022-11-02T01:19:11.065Z,1.14
2022-11-02T01:20:11.063Z,1.20
2022-11-02T01:21:11.064Z,2.36
2022-11-02T01:22:11.070Z,1.42
2022-11-02T01:23:11.064Z,2.22
2022-11-02T01:24:11.062Z,1.24
2022-11-02T01:25:11.070Z,0.84
2022-11-02T01:26:11.061Z,1.30
2022-11-02T01:27:11.063Z,0.76
2022-11-02T01:28:11.070Z,1.02
2022-11-02T01:29:11.061Z,0.72
2022-11-02T01:30:11.065Z,1.38
2022-11-02T01:31:11.070Z,1.26
2022-11-02T01:32:11.067Z,1.34
2022-11-02T01:33:11.062Z,1.10
2022-11-02T01:34:13.080Z,0.96
2022-11-02T01:35:11.065Z,1.70
2022-11-02T01:36:11.137Z,0.86
2022-11-02T01:37:11.079Z,0.88
2022-11-02T01:38:11.064Z,1.32
2022-11-02T01:39:11.061Z,1.54
2022-11-02T01:40:11.092Z,1.18
2022-11-02T01:41:11.067Z,0.98
2022-11-02T01:42:19.062Z,1.12
2022-11-02T01:43:22.064Z,0.62
2022-11-02T01:44:22.072Z,0.76
2022-11-02T01:45:13.081Z,1.04
2022-11-02T01:46:22.063Z,0.60
2022-11-02T01:47:19.062Z,1.42
2022-11-02T01:48:11.067Z,1.48
2022-11-02T01:49:15.074Z,0.70
2022-11-02T01:50:19.063Z,1.04
2022-11-02T01:51:19.061Z,0.60
2022-11-02T01:52:21.064Z,2.04
2022-11-02T01:53:11.076Z,0.92
2022-11-02T01:54:14.063Z,0.94
2022-11-02T01:55:17.066Z,0.90
2022-11-02T01:56:12.161Z,0.92
2022-11-02T01:57:13.071Z,1.12
2022-11-02T01:58:12.064Z,1.08
2022-11-02T01:59:14.075Z,1.12
2022-11-02T02:00:15.069Z,0.94
2022-11-02T02:01:11.121Z,0.62
2022-11-02T02:02:17.312Z,1.30
2022-11-02T02:03:12.075Z,1.30
2022-11-02T02:04:11.068Z,1.18
2022-11-02T02:05:12.062Z,1.34
2022-11-02T02:06:17.069Z,2.22
2022-11-02T02:07:11.069Z,0.84
2022-11-02T02:08:11.064Z,0.88
2022-11-02T02:09:11.066Z,1.22
2022-11-02T02:10:11.074Z,1.74
2022-11-02T02:11:19.067Z,1.72
2022-11-02T02:12:11.068Z,1.32
2022-11-02T02:13:11.075Z,1.14
2022-11-02T02:14:15.069Z,0.86
2022-11-02T02:15:11.067Z,1.14
2022-11-02T02:16:20.070Z,2.12
2022-11-02T02:17:19.079Z,1.26
2022-11-02T02:18:19.073Z,1.30
2022-11-02T02:19:22.066Z,1.60
2022-11-02T02:20:22.062Z,0.70
2022-11-02T02:21:19.067Z,0.88
2022-11-02T02:22:19.074Z,0.70
2022-11-02T02:23:22.066Z,1.68
2022-11-02T02:24:19.072Z,1.96
2022-11-02T02:25:22.065Z,1.78
2022-11-02T02:26:19.069Z,3.28
2022-11-02T02:27:20.071Z,1.66
2022-11-02T02:28:22.068Z,0.94
2022-11-02T02:29:19.067Z,1.66
2022-11-02T02:30:11.064Z,0.62
2022-11-02T02:31:18.066Z,0.94
2022-11-02T02:32:19.078Z,1.00
2022-11-02T02:33:13.067Z,0.82
2022-11-02T02:34:19.063Z,0.88
2022-11-02T02:35:19.069Z,1.32
2022-11-02T02:36:19.074Z,1.26
2022-11-02T02:37:18.068Z,1.28
2022-11-02T02:38:14.066Z,2.06
2022-11-02T02:39:22.068Z,0.84
2022-11-02T02:40:17.069Z,0.84
2022-11-02T02:41:18.068Z,0.76
2022-11-02T02:42:22.067Z,2.08
2022-11-02T02:43:19.063Z,1.52
2022-11-02T02:44:14.067Z,1.40
2022-11-02T02:45:19.096Z,0.78
2022-11-02T02:46:21.069Z,0.94
2022-11-02T02:47:17.071Z,1.10
2022-11-02T02:48:17.070Z,2.96
2022-11-02T02:49:13.068Z,1.18
2022-11-02T02:50:20.070Z,0.94
2022-11-02T02:51:14.067Z,0.86
2022-11-02T02:52:11.078Z,0.84
2022-11-02T02:53:11.076Z,1.06
2022-11-02T02:54:15.067Z,2.78
2022-11-02T02:55:15.068Z,1.14
2022-11-02T02:56:11.075Z,1.66
2022-11-02T02:57:12.077Z,0.76
2022-11-02T02:58:18.073Z,0.98
2022-11-02T02:59:19.077Z,0.62
2022-11-02T03:00:15.070Z,0.90
2022-11-02T03:01:13.290Z,2.76
2022-11-02T03:02:17.239Z,0.96
2022-11-02T03:03:11.075Z,1.02
2022-11-02T03:04:15.070Z,1.02
2022-11-02T03:05:19.068Z,1.80
2022-11-02T03:06:19.070Z,1.12
2022-11-02T03:07:11.078Z,0.54
2022-11-02T03:08:13.068Z,1.30
2022-11-02T03:09:19.072Z,2.40
2022-11-02T03:10:21.074Z,1.02
2022-11-02T03:11:18.081Z,1.04
2022-11-02T03:12:19.069Z,1.62
2022-11-02T03:13:19.068Z,0.72
2022-11-02T03:14:19.072Z,1.02
2022-11-02T03:15:19.070Z,1.18
2022-11-02T03:16:22.083Z,0.98
2022-11-02T03:17:19.073Z,0.92
2022-11-02T03:18:19.067Z,1.18
2022-11-02T03:19:20.085Z,1.02
2022-11-02T03:20:19.070Z,1.34
2022-11-02T03:21:19.103Z,0.98
2022-11-02T03:22:19.062Z,1.10
2022-11-02T03:23:23.060Z,1.40
2022-11-02T03:24:21.062Z,0.98
2022-11-02T03:25:19.061Z,1.50
2022-11-02T03:26:20.061Z,0.84
2022-11-02T03:27:19.076Z,1.12
2022-11-02T03:28:22.063Z,0.96
2022-11-02T03:29:14.060Z,1.02
2022-11-02T03:30:19.062Z,0.82
2022-11-02T03:31:19.068Z,0.70
2022-11-02T03:32:14.080Z,1.60
2022-11-02T03:33:19.063Z,1.58
2022-11-02T03:34:19.057Z,1.84
2022-11-02T03:35:19.062Z,0.60
2022-11-02T03:36:17.068Z,0.64
2022-11-02T03:37:20.063Z,0.86
2022-11-02T03:38:17.061Z,0.56
2022-11-02T03:39:12.061Z,0.82
2022-11-02T03:40:20.064Z,1.08
2022-11-02T03:41:11.069Z,0.82
2022-11-02T03:42:12.062Z,1.02
2022-11-02T03:43:11.066Z,0.90
2022-11-02T03:44:14.085Z,1.08
2022-11-02T03:45:19.063Z,0.54
2022-11-02T03:46:12.062Z,1.14
2022-11-02T03:47:12.063Z,1.04
2022-11-02T03:48:12.074Z,0.98
2022-11-02T03:49:14.064Z,0.72
2022-11-02T03:50:11.061Z,0.96
2022-11-02T03:51:13.064Z,0.54
2022-11-02T03:52:16.062Z,1.18
2022-11-02T03:53:18.097Z,1.62
2022-11-02T03:54:21.074Z,0.84
2022-11-02T03:55:18.064Z,1.08
2022-11-02T03:56:14.079Z,0.86
2022-11-02T03:57:16.061Z,1.44
2022-11-02T03:58:13.060Z,1.30
2022-11-02T03:59:11.066Z,1.04
2022-11-02T04:00:16.064Z,1.06
2022-11-02T04:01:12.110Z,1.36
2022-11-02T04:02:11.191Z,0.56
2022-11-02T04:03:13.074Z,0.96
2022-11-02T04:04:11.063Z,1.60
2022-11-02T04:05:11.064Z,1.28
2022-11-02T04:06:11.065Z,2.80
2022-11-02T04:07:11.062Z,1.78
2022-11-02T04:08:17.063Z,1.36
2022-11-02T04:09:11.072Z,1.36
2022-11-02T04:10:11.061Z,0.98
2022-11-02T04:11:15.066Z,1.12
2022-11-02T04:12:15.078Z,1.14
2022-11-02T04:13:15.065Z,0.66
2022-11-02T04:14:15.065Z,1.38
2022-11-02T04:15:11.069Z,1.74
2022-11-02T04:16:11.075Z,2.04
2022-11-02T04:17:15.064Z,0.72
2022-11-02T04:18:15.060Z,1.44
2022-11-02T04:19:15.065Z,1.36
2022-11-02T04:20:11.075Z,2.40
2022-11-02T04:21:11.064Z,1.28
2022-11-02T04:22:15.120Z,1.02
2022-11-02T04:23:15.073Z,1.60
2022-11-02T04:24:15.061Z,0.88
2022-11-02T04:25:18.068Z,1.18
2022-11-02T04:26:11.062Z,1.34
2022-11-02T04:27:11.070Z,1.06
2022-11-02T04:28:11.062Z,1.22
2022-11-02T04:29:11.063Z,1.56
2022-11-02T04:30:11.077Z,1.18
2022-11-02T04:31:11.063Z,1.00
2022-11-02T04:32:11.064Z,0.66
2022-11-02T04:33:15.075Z,1.10
2022-11-02T04:34:11.062Z,1.26
2022-11-02T04:35:11.059Z,1.12
2022-11-02T04:36:11.068Z,2.72
2022-11-02T04:37:15.063Z,1.26
2022-11-02T04:38:15.060Z,1.12
2022-11-02T04:39:11.061Z,0.70
2022-11-02T04:40:11.067Z,1.20
2022-11-02T04:41:18.065Z,0.82
2022-11-02T04:42:11.063Z,0.82
2022-11-02T04:43:11.063Z,0.98
2022-11-02T04:44:13.063Z,1.14
2022-11-02T04:45:11.062Z,1.24
2022-11-02T04:46:11.061Z,1.50
2022-11-02T04:47:11.064Z,0.82
2022-11-02T04:48:11.063Z,1.10
2022-11-02T04:49:11.062Z,0.98
2022-11-02T04:50:11.065Z,1.00
2022-11-02T04:51:11.062Z,0.96
2022-11-02T04:52:11.064Z,1.34
2022-11-02T04:53:11.065Z,1.06
2022-11-02T04:54:11.061Z,1.16
2022-11-02T04:55:11.067Z,0.82
2022-11-02T04:56:11.073Z,1.68
2022-11-02T04:57:11.061Z,1.54
2022-11-02T04:58:11.063Z,1.50
2022-11-02T04:59:11.070Z,1.30
2022-11-02T05:00:11.066Z,1.40
2022-11-02T05:01:14.127Z,0.64
2022-11-02T05:02:11.207Z,1.08
2022-11-02T05:03:12.499Z,1.42
2022-11-02T05:04:11.065Z,1.16
2022-11-02T05:05:11.072Z,1.12
2022-11-02T05:06:11.065Z,1.24
2022-11-02T05:07:11.066Z,0.98
2022-11-02T05:08:11.072Z,0.78
2022-11-02T05:09:11.065Z,1.40
2022-11-02T05:10:11.065Z,1.24
2022-11-02T05:11:11.062Z,1.18
2022-11-02T05:12:11.066Z,0.94
2022-11-02T05:13:11.062Z,0.78
2022-11-02T05:14:11.065Z,0.76
2022-11-02T05:15:11.076Z,2.10
2022-11-02T05:16:15.064Z,1.24
2022-11-02T05:17:11.065Z,2.36
2022-11-02T05:18:14.877Z,0.66
2022-11-02T05:19:13.113Z,1.14
2022-11-02T05:20:11.064Z,0.74
2022-11-02T05:21:11.061Z,1.16
2022-11-02T05:22:11.070Z,1.54
2022-11-02T05:23:11.056Z,1.02
2022-11-02T05:24:11.064Z,0.98
2022-11-02T05:25:11.061Z,1.12
2022-11-02T05:26:13.059Z,0.94
2022-11-02T05:27:11.065Z,3.06
2022-11-02T05:28:11.066Z,1.70
2022-11-02T05:29:11.058Z,0.88
2022-11-02T05:30:11.061Z,1.70
2022-11-02T05:31:11.069Z,1.08
2022-11-02T05:32:11.059Z,1.24
2022-11-02T05:33:11.061Z,1.28
2022-11-02T05:34:11.071Z,2.30
2022-11-02T05:35:11.062Z,1.14
2022-11-02T05:36:11.057Z,1.48
2022-11-02T05:37:11.068Z,0.64
2022-11-02T05:38:11.061Z,0.88
2022-11-02T05:39:11.056Z,1.32
2022-11-02T05:40:11.066Z,1.00
2022-11-02T05:41:11.063Z,1.02
2022-11-02T05:42:11.057Z,1.06
2022-11-02T05:43:11.062Z,0.84
2022-11-02T05:44:11.061Z,1.66
2022-11-02T05:45:11.061Z,1.52
2022-11-02T05:46:11.059Z,1.14
2022-11-02T05:47:11.090Z,0.84
2022-11-02T05:48:13.061Z,1.32
2022-11-02T05:49:11.066Z,2.20
2022-11-02T05:50:11.062Z,0.90
2022-11-02T05:51:11.060Z,1.18
2022-11-02T05:52:11.062Z,2.00
2022-11-02T05:53:11.068Z,0.98
2022-11-02T05:54:11.059Z,1.64
2022-11-02T05:55:11.057Z,1.46
2022-11-02T05:56:11.071Z,0.94
2022-11-02T05:57:11.062Z,1.98
2022-11-02T05:58:11.066Z,0.82
2022-11-02T05:59:11.064Z,1.70
2022-11-02T06:00:11.062Z,1.38
2022-11-02T06:01:11.166Z,0.96
2022-11-02T06:02:11.063Z,1.30
2022-11-02T06:03:11.064Z,0.96
2022-11-02T06:04:11.149Z,1.20
2022-11-02T06:05:11.125Z,1.06
2022-11-02T06:06:11.062Z,1.96
2022-11-02T06:07:11.062Z,1.16
2022-11-02T06:08:11.061Z,1.30
2022-11-02T06:09:11.063Z,1.16
2022-11-02T06:10:11.061Z,0.72
2022-11-02T06:11:11.061Z,0.80
2022-11-02T06:12:11.062Z,1.30
2022-11-02T06:13:11.064Z,1.50
2022-11-02T06:14:11.062Z,1.10
2022-11-02T06:15:11.078Z,1.58
2022-11-02T06:16:11.085Z,2.82
2022-11-02T06:17:11.072Z,0.94
2022-11-02T06:18:11.069Z,0.88
2022-11-02T06:19:11.165Z,1.18
2022-11-02T06:20:11.070Z,1.38
2022-11-02T06:21:11.060Z,1.40
2022-11-02T06:22:11.055Z,0.84
2022-11-02T06:23:11.061Z,1.18
2022-11-02T06:24:11.064Z,1.10
2022-11-02T06:25:11.059Z,1.68
2022-11-02T06:26:11.063Z,1.16
2022-11-02T06:27:11.061Z,2.76
2022-11-02T06:28:11.056Z,1.70
2022-11-02T06:29:11.061Z,1.26
2022-11-02T06:30:11.062Z,1.50
2022-11-02T06:31:11.055Z,1.18
2022-11-02T06:32:11.063Z,1.26
2022-11-02T06:33:11.234Z,1.32
2022-11-02T06:34:11.055Z,0.90
2022-11-02T06:35:11.063Z,1.76
2022-11-02T06:36:11.061Z,1.14
2022-11-02T06:37:11.057Z,1.34
2022-11-02T06:38:11.063Z,2.42
2022-11-02T06:39:11.061Z,1.36
2022-11-02T06:40:11.058Z,2.52
2022-11-02T06:41:11.062Z,1.04
2022-11-02T06:42:11.061Z,1.18
2022-11-02T06:43:16.625Z,2.46
2022-11-02T06:44:13.105Z,1.44
2022-11-02T06:45:11.063Z,1.32
2022-11-02T06:46:11.059Z,1.22
2022-11-02T06:47:11.059Z,2.18
2022-11-02T06:48:11.071Z,1.62
2022-11-02T06:49:11.059Z,1.90
2022-11-02T06:50:11.062Z,2.52
2022-11-02T06:51:11.068Z,1.38
2022-11-02T06:52:11.060Z,1.20
2022-11-02T06:53:11.066Z,1.46
2022-11-02T06:54:11.068Z,2.18
2022-11-02T06:55:11.062Z,1.70
2022-11-02T06:56:11.065Z,1.26
2022-11-02T06:57:11.069Z,1.40
2022-11-02T06:58:11.064Z,1.70
2022-11-02T06:59:11.062Z,2.56
2022-11-02T07:00:11.066Z,1.32
2022-11-02T07:01:11.326Z,1.46
2022-11-02T07:02:11.089Z,1.54
2022-11-02T07:03:11.065Z,2.86
2022-11-02T07:04:11.064Z,1.28
2022-11-02T07:05:11.064Z,1.34
2022-11-02T07:06:14.095Z,2.38
2022-11-02T07:07:11.063Z,2.34
2022-11-02T07:08:11.060Z,1.48
2022-11-02T07:09:11.062Z,1.22
2022-11-02T07:10:12.070Z,1.74
2022-11-02T07:11:15.083Z,1.80
2022-11-02T07:12:11.065Z,1.58
2022-11-02T07:13:11.069Z,2.52
2022-11-02T07:14:11.063Z,1.24
2022-11-02T07:15:11.065Z,1.02
2022-11-02T07:16:11.071Z,1.58
2022-11-02T07:17:11.059Z,1.48
2022-11-02T07:18:11.062Z,3.30
2022-11-02T07:19:11.064Z,1.40
2022-11-02T07:20:11.061Z,1.88
2022-11-02T07:21:11.139Z,1.82
2022-11-02T07:22:11.068Z,2.20
2022-11-02T07:23:11.060Z,1.36
2022-11-02T07:24:11.056Z,1.28
2022-11-02T07:25:11.063Z,2.02
2022-11-02T07:26:11.061Z,2.42
2022-11-02T07:27:11.057Z,1.86
2022-11-02T07:28:11.061Z,1.16
2022-11-02T07:29:11.065Z,1.94
2022-11-02T07:30:11.059Z,2.14
2022-11-02T07:31:11.063Z,1.18
2022-11-02T07:32:11.061Z,1.16
2022-11-02T07:33:11.059Z,4.18
2022-11-02T07:34:16.535Z,1.76
2022-11-02T07:35:13.084Z,2.28
2022-11-02T07:36:11.058Z,2.78
2022-11-02T07:37:11.063Z,1.24
2022-11-02T07:38:11.061Z,1.32
2022-11-02T07:39:11.059Z,2.00
2022-11-02T07:40:11.060Z,1.66
2022-11-02T07:41:11.062Z,2.14
2022-11-02T07:42:11.062Z,2.22
2022-11-02T07:43:11.061Z,1.94
2022-11-02T07:44:11.069Z,2.04
2022-11-02T07:45:11.058Z,1.16
2022-11-02T07:46:11.063Z,1.10
2022-11-02T07:47:11.068Z,2.10
2022-11-02T07:48:11.059Z,1.10
2022-11-02T07:49:11.061Z,1.78
2022-11-02T07:50:11.067Z,2.04
2022-11-02T07:51:11.060Z,2.78
2022-11-02T07:52:11.064Z,1.96
2022-11-02T07:53:11.062Z,1.42
2022-11-02T07:54:11.061Z,0.86
2022-11-02T07:55:11.063Z,1.58
2022-11-02T07:56:11.070Z,1.60
2022-11-02T07:57:11.063Z,2.02
2022-11-02T07:58:12.064Z,1.52
2022-11-02T07:59:12.071Z,1.92
2022-11-02T08:00:11.067Z,1.34
2022-11-02T08:01:11.119Z,3.80
2022-11-02T08:02:12.071Z,1.36
2022-11-02T08:03:11.439Z,1.10
2022-11-02T08:04:11.191Z,1.44
2022-11-02T08:05:11.067Z,1.44
2022-11-02T08:06:11.062Z,1.02
2022-11-02T08:07:11.063Z,1.30
2022-11-02T08:08:15.086Z,1.78
2022-11-02T08:09:11.064Z,1.98
2022-11-02T08:10:11.063Z,2.26
2022-11-02T08:11:11.103Z,1.56
2022-11-02T08:12:11.065Z,3.32
2022-11-02T08:13:11.063Z,1.82
2022-11-02T08:14:11.063Z,1.70
2022-11-02T08:15:11.064Z,2.28
2022-11-02T08:16:11.061Z,1.62
2022-11-02T08:17:11.062Z,1.92
2022-11-02T08:18:18.067Z,1.00
2022-11-02T08:19:11.069Z,1.02
2022-11-02T08:20:11.060Z,2.20
2022-11-02T08:21:11.072Z,2.98
2022-11-02T08:22:11.062Z,1.76
2022-11-02T08:23:11.058Z,2.06
2022-11-02T08:24:11.063Z,2.20
2022-11-02T08:25:11.171Z,1.72
2022-11-02T08:26:11.056Z,2.18
2022-11-02T08:27:11.065Z,1.28
2022-11-02T08:28:13.062Z,2.98
2022-11-02T08:29:11.062Z,2.42
2022-11-02T08:30:11.061Z,1.74
2022-11-02T08:31:15.063Z,1.86
2022-11-02T08:32:11.061Z,1.62
2022-11-02T08:33:12.061Z,1.16
2022-11-02T08:34:11.061Z,2.48
2022-11-02T08:35:11.063Z,1.84
2022-11-02T08:36:11.062Z,1.56
2022-11-02T08:37:11.066Z,2.52
2022-11-02T08:38:11.060Z,1.58
2022-11-02T08:39:16.050Z,1.98
2022-11-02T08:40:13.428Z,1.76
2022-11-02T08:41:11.063Z,3.62
2022-11-02T08:42:11.098Z,2.22
2022-11-02T08:43:13.064Z,2.14
2022-11-02T08:44:11.063Z,2.22
2022-11-02T08:45:11.081Z,1.64
2022-11-02T08:46:15.643Z,1.88
2022-11-02T08:47:13.155Z,2.72
2022-11-02T08:48:11.060Z,1.36
2022-11-02T08:49:11.064Z,2.26
2022-11-02T08:50:11.073Z,2.02
2022-11-02T08:51:12.062Z,2.60
2022-11-02T08:52:11.065Z,2.18
2022-11-02T08:53:11.069Z,2.00
2022-11-02T08:54:11.064Z,1.68
2022-11-02T08:55:11.058Z,1.28
2022-11-02T08:56:11.064Z,1.30
2022-11-02T08:57:11.065Z,2.04
2022-11-02T08:58:11.060Z,2.06
2022-11-02T08:59:11.070Z,1.82
2022-11-02T09:00:11.068Z,1.64
2022-11-02T09:01:11.115Z,2.12
2022-11-02T09:02:11.251Z,1.72
2022-11-02T09:03:13.064Z,3.10
2022-11-02T09:04:11.062Z,2.02
2022-11-02T09:05:11.064Z,2.18
2022-11-02T09:06:11.064Z,1.70
2022-11-02T09:07:11.064Z,2.46
2022-11-02T09:08:12.113Z,1.72
2022-11-02T09:09:11.065Z,1.94
2022-11-02T09:10:11.061Z,2.26
2022-11-02T09:11:11.066Z,1.50
2022-11-02T09:12:11.071Z,1.94
2022-11-02T09:13:12.063Z,1.76
2022-11-02T09:14:11.191Z,2.18
2022-11-02T09:15:11.077Z,2.16
2022-11-02T09:16:11.065Z,3.32
2022-11-02T09:17:11.062Z,2.04
2022-11-02T09:18:11.063Z,1.10
2022-11-02T09:19:11.068Z,3.28
2022-11-02T09:20:11.063Z,1.92
2022-11-02T09:21:11.072Z,2.38
2022-11-02T09:22:11.067Z,3.06
2022-11-02T09:23:11.057Z,1.76
2022-11-02T09:24:11.061Z,1.82
2022-11-02T09:25:11.067Z,3.88
2022-11-02T09:26:11.062Z,2.30
2022-11-02T09:27:11.057Z,2.42
2022-11-02T09:28:11.250Z,2.30
2022-11-02T09:29:11.094Z,3.06
2022-11-02T09:30:11.063Z,3.32
2022-11-02T09:31:11.869Z,1.90
2022-11-02T09:32:11.061Z,2.24
2022-11-02T09:33:11.061Z,1.70
2022-11-02T09:34:11.060Z,3.24
2022-11-02T09:35:13.061Z,3.52
2022-11-02T09:36:11.060Z,3.62
2022-11-02T09:37:11.062Z,3.20
2022-11-02T09:38:11.102Z,1.30
2022-11-02T09:39:11.060Z,2.48
2022-11-02T09:40:11.065Z,2.00
2022-11-02T09:41:17.069Z,2.44
2022-11-02T09:42:19.061Z,2.08
2022-11-02T09:43:19.060Z,1.68
2022-11-02T09:44:19.058Z,3.16
2022-11-02T09:45:14.062Z,2.20
2022-11-02T09:46:15.069Z,3.24
2022-11-02T09:48:10.799Z,3.28
2022-11-02T09:48:26.806Z,3.70
2022-11-02T09:49:20.075Z,2.74
2022-11-02T09:50:19.131Z,2.52
2022-11-02T09:51:16.063Z,3.80
2022-11-02T09:52:14.066Z,2.70
2022-11-02T09:53:14.064Z,2.34
2022-11-02T09:54:19.072Z,2.10
2022-11-02T09:55:20.066Z,1.98
2022-11-02T09:56:11.062Z,2.50
2022-11-02T09:57:16.063Z,1.62
2022-11-02T09:58:16.063Z,1.92
2022-11-02T09:59:15.071Z,2.08
2022-11-02T10:00:14.064Z,1.74
2022-11-02T10:01:19.140Z,2.70
2022-11-02T10:02:19.085Z,2.90
2022-11-02T10:03:19.071Z,3.10
2022-11-02T10:04:19.064Z,2.32
2022-11-02T10:05:19.064Z,2.22
2022-11-02T10:06:17.063Z,2.16
2022-11-02T10:07:19.067Z,3.76
2022-11-02T10:08:21.064Z,2.12
2022-11-02T10:09:20.072Z,3.14
2022-11-02T10:10:19.067Z,2.56
2022-11-02T10:11:23.152Z,2.64
2022-11-02T10:12:16.063Z,2.98
2022-11-02T10:13:21.064Z,2.16
2022-11-02T10:14:19.066Z,2.16
2022-11-02T10:15:18.100Z,2.28
2022-11-02T10:16:19.068Z,1.58
2022-11-02T10:17:19.065Z,2.70
2022-11-02T10:18:18.065Z,3.02
2022-11-02T10:19:15.069Z,2.74
2022-11-02T10:20:21.118Z,1.90
2022-11-02T10:21:13.057Z,2.58
2022-11-02T10:22:14.061Z,2.24
2022-11-02T10:23:17.062Z,1.42
2022-11-02T10:24:19.061Z,3.56
2022-11-02T10:25:15.065Z,4.32
2022-11-02T10:26:17.056Z,2.98
2022-11-02T10:27:16.078Z,2.86
2022-11-02T10:28:20.183Z,3.70
2022-11-02T10:29:19.059Z,2.52
2022-11-02T10:30:18.058Z,1.94
2022-11-02T10:31:21.063Z,2.88
2022-11-02T10:32:14.060Z,3.30
2022-11-02T10:33:15.099Z,3.80
2022-11-02T10:34:19.060Z,5.34
2022-11-02T10:35:36.682Z,4.40
2022-11-02T10:36:20.417Z,4.14
2022-11-02T10:37:19.060Z,4.38
2022-11-02T10:38:19.068Z,3.80
2022-11-02T10:39:19.062Z,5.28
2022-11-02T10:40:19.152Z,3.12
2022-11-02T10:41:19.058Z,4.42
2022-11-02T10:42:19.062Z,4.04
2022-11-02T10:43:21.070Z,2.72
2022-11-02T10:44:19.062Z,3.96
2022-11-02T10:45:19.060Z,2.88
2022-11-02T10:46:19.065Z,2.68
2022-11-02T10:47:18.062Z,3.68
2022-11-02T10:48:19.068Z,3.18
2022-11-02T10:49:21.086Z,3.26
2022-11-02T10:50:21.059Z,2.78
2022-11-02T10:51:15.060Z,2.74
2022-11-02T10:52:15.063Z,3.26
2022-11-02T10:53:39.485Z,2.56
2022-11-02T10:54:19.512Z,3.94
2022-11-02T10:55:21.071Z,2.94
2022-11-02T10:56:18.060Z,2.78
2022-11-02T10:57:14.066Z,4.44
2022-11-02T10:58:15.072Z,4.10
2022-11-02T10:59:19.066Z,3.70
2022-11-02T11:00:19.093Z,2.44
2022-11-02T11:01:11.203Z,3.90
2022-11-02T11:02:15.079Z,2.42
2022-11-02T11:03:12.072Z,2.66
2022-11-02T11:04:19.063Z,3.02
2022-11-02T11:05:15.063Z,2.54
2022-11-02T11:06:12.063Z,2.00
2022-11-02T11:07:17.068Z,2.18
2022-11-02T11:08:19.063Z,3.64
2022-11-02T11:09:18.089Z,3.44
2022-11-02T11:10:15.066Z,2.82
2022-11-02T11:11:19.073Z,2.18
2022-11-02T11:12:19.066Z,2.46
2022-11-02T11:15:48.013Z,1.48
2022-11-02T11:16:16.832Z,3.24
2022-11-02T11:20:21.102Z,3.04
2022-11-02T11:21:11.055Z,2.92
2022-11-02T11:22:19.063Z,3.22
2022-11-02T11:23:21.060Z,3.56
2022-11-02T11:24:19.152Z,2.84
2022-11-02T11:25:27.176Z,4.44
2022-11-02T11:26:21.121Z,3.38
2022-11-02T11:27:19.102Z,3.24
2022-11-02T11:28:19.072Z,2.00
2022-11-02T11:29:19.060Z,3.24
2022-11-02T11:30:33.510Z,2.16
2022-11-02T11:31:16.071Z,2.78
2022-11-02T11:32:20.060Z,2.84
2022-11-02T11:33:15.063Z,2.98
2022-11-02T11:34:19.076Z,2.76
2022-11-02T11:35:17.058Z,2.24
2022-11-02T11:36:11.062Z,2.54
2022-11-02T11:37:12.063Z,2.20
2022-11-02T11:38:16.063Z,2.72
2022-11-02T11:39:21.059Z,3.30
2022-11-02T11:40:18.077Z,4.52
2022-11-02T11:41:13.062Z,4.78
2022-11-02T11:42:19.061Z,2.78
2022-11-02T11:43:15.064Z,2.14
2022-11-02T11:44:14.064Z,6.12
2022-11-02T11:45:19.067Z,2.94
2022-11-02T11:46:11.069Z,3.42
2022-11-02T11:47:11.059Z,1.68
2022-11-02T11:48:19.066Z,2.36
2022-11-02T11:49:19.060Z,2.44
2022-11-02T11:50:21.179Z,2.28
2022-11-02T11:51:25.214Z,2.72
2022-11-02T11:52:19.064Z,2.60
2022-11-02T11:53:21.060Z,3.96
2022-11-02T11:54:21.061Z,2.96
2022-11-02T11:55:19.062Z,3.62
2022-11-02T11:56:19.072Z,1.98
2022-11-02T11:57:19.063Z,4.00
2022-11-02T11:58:19.060Z,1.84
2022-11-02T11:59:19.071Z,5.24
2022-11-02T12:00:21.063Z,2.56
2022-11-02T12:01:17.188Z,2.60
2022-11-02T12:02:19.155Z,2.86
2022-11-02T12:03:13.107Z,2.44
2022-11-02T12:04:11.066Z,3.14
2022-11-02T12:05:17.071Z,3.06
2022-11-02T12:06:19.066Z,3.22
2022-11-02T12:07:19.066Z,2.66
2022-11-02T12:08:18.080Z,3.02
2022-11-02T12:09:19.069Z,2.12
2022-11-02T12:10:19.072Z,3.52
2022-11-02T12:11:19.447Z,2.56
2022-11-02T12:12:21.063Z,2.94
2022-11-02T12:13:21.060Z,3.50
2022-11-02T12:14:21.065Z,2.96
2022-11-02T12:15:19.066Z,3.08
2022-11-02T12:16:21.071Z,2.06
2022-11-02T12:17:19.067Z,3.38
2022-11-02T12:18:19.070Z,3.46
2022-11-02T12:19:19.127Z,3.86
2022-11-02T12:20:21.080Z,3.18
2022-11-02T12:21:21.073Z,3.18
2022-11-02T12:22:19.060Z,2.64
2022-11-02T12:23:19.059Z,3.56
2022-11-02T12:24:19.055Z,5.88
2022-11-02T12:25:21.059Z,2.66
2022-11-02T12:26:19.068Z,2.18
2022-11-02T12:27:21.060Z,2.68
2022-11-02T12:28:19.060Z,2.32
2022-11-02T12:29:19.060Z,2.70
2022-11-02T12:30:15.155Z,2.98
2022-11-02T12:31:21.067Z,3.32
2022-11-02T12:32:19.067Z,3.22
2022-11-02T12:33:19.063Z,2.18
2022-11-02T12:34:19.060Z,3.08
2022-11-02T12:35:30.124Z,3.50
2022-11-02T12:36:22.371Z,3.82
2022-11-02T12:37:40.788Z,2.46
2022-11-02T12:38:21.074Z,3.52
2022-11-02T12:39:15.062Z,3.20
2022-11-02T12:40:19.143Z,3.36
2022-11-02T12:41:12.067Z,4.04
2022-11-02T12:42:21.064Z,2.78
2022-11-02T12:43:19.061Z,2.24
2022-11-02T12:44:19.059Z,3.56
2022-11-02T12:45:19.061Z,3.72
2022-11-02T12:46:21.072Z,2.98
2022-11-02T12:47:23.078Z,2.92
2022-11-02T12:48:17.064Z,2.30
2022-11-02T12:49:21.066Z,3.12
2022-11-02T12:50:24.058Z,2.96
2022-11-02T12:51:14.064Z,3.86
2022-11-02T12:52:21.075Z,3.46
2022-11-02T12:53:19.068Z,3.02
2022-11-02T12:54:16.062Z,2.14
2022-11-02T12:55:19.066Z,3.16
2022-11-02T12:56:18.074Z,3.50
2022-11-02T12:57:16.080Z,4.88
2022-11-02T12:58:19.066Z,3.14
2022-11-02T12:59:21.068Z,3.18
2022-11-02T13:00:17.063Z,2.44
2022-11-02T13:01:21.191Z,3.04
2022-11-02T13:02:19.085Z,4.72
2022-11-02T13:03:21.064Z,4.00
2022-11-02T13:04:19.765Z,2.22
2022-11-02T13:05:17.060Z,3.96
2022-11-02T13:06:13.066Z,3.76
2022-11-02T13:07:18.066Z,4.06
2022-11-02T13:08:16.084Z,2.94
2022-11-02T13:09:19.063Z,2.16
2022-11-02T13:10:19.062Z,4.08
2022-11-02T13:11:22.075Z,5.60
2022-11-02T13:12:17.070Z,2.86
2022-11-02T13:13:17.062Z,4.54
2022-11-02T13:14:20.064Z,3.78
2022-11-02T13:15:17.066Z,3.04
2022-11-02T13:16:11.067Z,3.08
2022-11-02T13:17:18.067Z,3.48
2022-11-02T13:18:22.065Z,4.46
2022-11-02T13:19:19.068Z,3.08
2022-11-02T13:20:20.072Z,3.24
2022-11-02T13:21:13.067Z,4.94
2022-11-02T13:22:13.059Z,2.76
2022-11-02T13:23:19.125Z,3.14